Time;durP1;ratioP1;P1;durP2;ratioP2;P2;SDS_P1;SDS_P2;PMS_P1;PMS_P2;Temp;Humidity;BMP_temperature;BMP_pressure;BME280_temperature;BME280_humidity;BME280_pressure;Samples;Min_cycle;Max_cycle;Signal;HPM_P1;HPM_P2
2022/04/16 00:14:15;;;;;;;23.30;16.38;;;7.30;99.90;;;;;;6337790;22;20019;-83
2022/04/16 00:16:41;;;;;;;24.05;16.63;;;7.20;99.90;;;;;;6284214;22;20018;-83
2022/04/16 00:19:08;;;;;;;22.08;15.82;;;7.20;99.90;;;;;;6284476;22;20015;-85
2022/04/16 00:21:35;;;;;;;21.98;16.55;;;7.10;99.90;;;;;;6337759;22;20092;-85
2022/04/16 00:24:01;;;;;;;23.38;15.63;;;7.10;99.90;;;;;;6284077;22;20015;-84
2022/04/16 00:26:28;;;;;;;26.13;16.98;;;6.90;99.90;;;;;;6310068;22;20090;-86
2022/04/16 00:28:54;;;;;;;23.27;16.35;;;6.80;99.90;;;;;;6311893;22;20087;-83
2022/04/16 00:31:20;;;;;;;24.27;17.03;;;6.80;99.90;;;;;;6312414;22;20483;-84
2022/04/16 00:33:47;;;;;;;;;;;6.70;99.90;;;;;;6313012;22;20027;-82
2022/04/16 00:36:16;;;;;;;26.65;17.77;;;6.70;99.90;;;;;;6311877;22;19921;-81
2022/04/16 00:38:43;;;;;;;24.83;17.38;;;6.60;99.90;;;;;;6312197;22;20014;-85
2022/04/16 00:41:08;;;;;;;26.05;18.60;;;6.70;99.90;;;;;;6311996;22;20033;-86
2022/04/16 00:43:34;;;;;;;26.37;19.70;;;6.70;99.90;;;;;;6311734;22;20023;-86
2022/04/16 00:46:15;;;;;;;25.50;19.17;;;6.60;99.90;;;;;;6339854;22;20014;-86
2022/04/16 00:48:41;;;;;;;31.80;20.13;;;6.70;99.90;;;;;;6312341;22;20026;-86
2022/04/16 00:51:08;;;;;;;28.53;19.47;;;6.70;99.90;;;;;;6311834;22;20015;-85
2022/04/16 00:53:34;;;;;;;29.10;19.85;;;6.70;99.90;;;;;;6339425;22;20019;-84
2022/04/16 00:56:00;;;;;;;28.73;19.53;;;6.70;99.90;;;;;;6312054;22;20347;-83
2022/04/16 00:58:26;;;;;;;27.42;18.40;;;6.70;99.90;;;;;;6311930;22;20315;-86
2022/04/16 01:00:52;;;;;;;30.30;19.53;;;6.80;99.90;;;;;;6311749;22;20061;-86
2022/04/16 01:03:18;;;;;;;28.67;19.73;;;6.90;99.90;;;;;;6339207;22;20023;-86
2022/04/16 01:05:44;;;;;;;28.73;20.02;;;6.90;99.90;;;;;;6339874;22;20049;-84
2022/04/16 01:08:09;;;;;;;30.20;20.17;;;6.90;99.90;;;;;;6311765;22;20015;-83
2022/04/16 01:10:35;;;;;;;32.63;20.10;;;7.00;99.90;;;;;;6339439;22;20029;-84
2022/04/16 01:13:04;;;;;;;30.05;20.30;;;7.00;99.90;;;;;;6311396;22;20015;-84
2022/04/16 01:15:30;;;;;;;30.73;20.83;;;7.10;99.90;;;;;;6339020;22;20044;-85
2022/04/16 01:18:05;;;;;;;29.17;20.33;;;7.20;99.90;;;;;;6340057;22;20019;-86
2022/04/16 01:20:35;;;;;;;28.60;20.33;;;7.20;99.90;;;;;;6285694;22;20113;-85
2022/04/16 01:23:02;;;;;;;31.40;20.52;;;7.30;99.90;;;;;;6311562;22;20019;-84
2022/04/16 01:25:27;;;;;;;29.63;21.42;;;7.30;99.90;;;;;;6311422;22;20014;-85
2022/04/16 01:27:54;;;;;;;31.97;21.20;;;7.40;99.90;;;;;;6311400;22;20100;-86
2022/04/16 01:30:23;;;;;;;31.42;21.60;;;7.40;99.90;;;;;;6311475;22;20018;-86
2022/04/16 01:32:49;;;;;;;27.88;20.67;;;7.40;99.90;;;;;;6311469;22;20450;-85
2022/04/16 01:35:16;;;;;;;30.02;21.08;;;7.40;99.90;;;;;;6339177;22;20344;-85
2022/04/16 01:37:42;;;;;;;32.50;22.25;;;7.50;99.90;;;;;;6339410;22;20084;-85
2022/04/16 01:40:10;;;;;;;28.17;20.40;;;7.40;99.90;;;;;;6311105;22;20022;-85
2022/04/16 01:42:37;;;;;;;29.58;20.35;;;7.40;99.90;;;;;;6338962;22;20015;-85
2022/04/16 01:45:04;;;;;;;;;;;7.40;99.90;;;;;;6311998;22;20521;-86
2022/04/16 01:47:30;;;;;;;27.55;19.60;;;7.40;99.90;;;;;;6311169;22;19915;-85
2022/04/16 01:49:56;;;;;;;32.33;21.70;;;7.30;99.90;;;;;;6311388;22;20027;-85
2022/04/16 01:52:26;;;;;;;31.43;21.93;;;7.30;99.90;;;;;;6311212;22;20098;-87
2022/04/16 01:54:52;;;;;;;32.15;21.63;;;7.30;99.90;;;;;;6311008;22;20019;-87
2022/04/16 01:57:19;;;;;;;31.20;22.00;;;7.20;99.90;;;;;;6311444;22;20023;-84
2022/04/16 01:59:48;;;;;;;31.25;21.45;;;7.20;99.90;;;;;;6339247;22;20015;-86
2022/04/16 02:02:15;;;;;;;32.30;22.55;;;7.20;99.90;;;;;;6285425;22;20329;-83
2022/04/16 02:04:41;;;;;;;33.03;22.65;;;7.20;99.90;;;;;;6311301;22;20015;-84
2022/04/16 02:07:07;;;;;;;33.50;22.90;;;7.20;99.90;;;;;;6311228;22;20339;-82
2022/04/16 02:09:33;;;;;;;34.50;23.55;;;7.20;99.90;;;;;;6338845;22;20350;-86
2022/04/16 02:11:59;;;;;;;36.97;23.33;;;7.30;99.90;;;;;;6310659;22;20030;-85
2022/04/16 02:14:25;;;;;;;33.27;23.40;;;7.30;99.90;;;;;;6338768;22;20023;-84
2022/04/16 02:16:50;;;;;;;35.83;24.27;;;7.30;99.90;;;;;;6311072;22;20015;-85
2022/04/16 02:19:16;;;;;;;38.93;24.77;;;7.30;99.90;;;;;;6339059;22;20021;-83
2022/04/16 02:21:45;;;;;;;35.50;24.17;;;7.30;99.90;;;;;;6338941;22;20018;-86
2022/04/16 02:24:13;;;;;;;40.05;26.92;;;7.40;99.90;;;;;;6338635;22;20030;-87
2022/04/16 02:26:41;;;;;;;38.45;26.48;;;7.40;99.90;;;;;;6338609;22;20045;-83
2022/04/16 02:29:10;;;;;;;41.63;26.70;;;7.40;99.90;;;;;;6285178;22;20034;-86
2022/04/16 02:31:39;;;;;;;41.83;26.92;;;7.40;99.90;;;;;;6311104;22;20019;-87
2022/04/16 02:34:10;;;;;;;45.00;26.55;;;7.50;99.90;;;;;;6338698;22;20019;-83
2022/04/16 02:36:36;;;;;;;40.05;26.65;;;7.50;99.90;;;;;;6310907;22;20073;-84
2022/04/16 02:39:03;;;;;;;43.75;28.95;;;7.60;99.90;;;;;;6311050;22;20351;-83
2022/04/16 02:41:29;;;;;;;;;;;7.60;99.90;;;;;;6311512;22;20037;-83
2022/04/16 02:43:55;;;;;;;45.85;28.95;;;7.60;99.90;;;;;;6285072;22;19915;-82
2022/04/16 02:49:06;;;;;;;41.58;27.55;;;7.80;99.90;;;;;;6310768;22;20022;-84
2022/04/16 02:51:32;;;;;;;41.75;27.35;;;7.80;99.90;;;;;;6338256;22;20022;-83
2022/04/16 02:53:58;;;;;;;38.80;27.20;;;7.90;99.90;;;;;;6310579;22;20041;-83
2022/04/16 02:56:24;;;;;;;38.17;26.47;;;8.00;99.90;;;;;;6338618;22;20023;-86
2022/04/16 02:58:50;;;;;;;35.20;24.47;;;8.00;99.90;;;;;;6338519;22;20600;-83
2022/04/16 03:01:16;;;;;;;33.33;24.00;;;8.00;99.90;;;;;;6310714;22;20019;-83
2022/04/16 03:03:41;;;;;;;32.38;24.55;;;8.00;99.90;;;;;;6338781;22;20030;-83
2022/04/16 03:06:08;;;;;;;37.37;25.53;;;8.00;99.90;;;;;;6338436;22;20014;-86
2022/04/16 03:08:33;;;;;;;35.40;24.08;;;8.00;99.90;;;;;;6310903;22;20026;-89
2022/04/16 03:11:00;;;;;;;37.77;25.83;;;8.10;99.90;;;;;;6338560;22;20023;-86
2022/04/16 03:13:26;;;;;;;;;;;8.00;99.90;;;;;;6338711;22;20050;-86
2022/04/16 03:18:36;;;;;;;37.92;27.75;;;8.00;99.90;;;;;;6338059;22;20390;-86
2022/04/16 03:21:03;;;;;;;40.83;27.70;;;8.00;99.90;;;;;;6338306;22;20023;-87
2022/04/16 03:23:29;;;;;;;41.28;29.73;;;8.10;99.90;;;;;;6310527;22;20068;-85
2022/04/16 03:25:58;;;;;;;42.13;28.77;;;8.00;99.90;;;;;;6338347;22;20097;-87
2022/04/16 03:28:24;;;;;;;43.17;29.08;;;8.00;99.90;;;;;;6310641;22;20309;-86
2022/04/16 03:30:50;;;;;;;41.00;28.77;;;7.90;99.90;;;;;;6338542;22;20025;-87
2022/04/16 03:33:16;;;;;;;40.47;27.60;;;7.90;99.90;;;;;;6338343;22;20017;-86
2022/04/16 03:35:41;;;;;;;38.50;26.80;;;7.90;99.90;;;;;;6338048;22;20347;-85
2022/04/16 03:38:07;;;;;;;40.30;27.50;;;7.80;99.90;;;;;;6310484;22;20097;-85
2022/04/16 03:40:33;;;;;;;41.30;28.07;;;7.70;99.90;;;;;;6310437;22;20448;-85
2022/04/16 03:43:00;;;;;;;44.97;29.63;;;7.70;99.90;;;;;;6310551;22;20021;-87
2022/04/16 03:45:31;;;;;;;45.42;30.67;;;7.70;99.90;;;;;;6284793;22;20030;-89
2022/04/16 03:47:58;;;;;;;45.15;30.63;;;7.60;99.90;;;;;;6338192;22;20072;-83
2022/04/16 03:50:26;;;;;;;48.97;32.20;;;7.60;99.90;;;;;;6284655;22;20060;-83
2022/04/16 03:52:52;;;;;;;46.70;30.52;;;7.50;99.90;;;;;;6310195;22;20351;-83
2022/04/16 04:00:51;;;;;;;52.22;33.70;;;7.50;99.90;;;;;;6338302;22;20089;-83
2022/04/16 04:03:30;;;;;;;50.53;34.35;;;7.40;99.90;;;;;;6310174;22;20015;-84
2022/04/16 04:06:01;;;;;;;50.88;34.95;;;7.40;99.90;;;;;;6310218;22;20071;-83
2022/04/16 04:08:28;;;;;;;49.10;34.90;;;7.40;99.90;;;;;;6259712;22;20037;-82
2022/04/16 04:10:54;;;;;;;47.60;33.40;;;7.40;99.90;;;;;;6284545;22;20179;-82
2022/04/16 04:13:20;;;;;;;48.88;34.67;;;7.40;99.90;;;;;;6309773;22;20022;-82
2022/04/16 04:15:46;;;;;;;51.10;34.90;;;7.40;99.90;;;;;;6310256;22;20033;-83
2022/04/16 04:18:17;;;;;;;48.27;33.13;;;7.40;99.90;;;;;;6284487;22;20811;-84
2022/04/16 04:20:43;;;;;;;49.33;31.77;;;7.40;99.90;;;;;;6310335;22;20027;-83
2022/04/16 04:23:09;;;;;;;45.83;32.77;;;7.30;99.90;;;;;;6310195;22;20096;-81
2022/04/16 04:25:35;;;;;;;47.03;32.90;;;7.30;99.90;;;;;;6284406;22;20023;-82
2022/04/16 04:28:00;;;;;;;47.80;31.80;;;7.30;99.90;;;;;;6310246;22;20011;-81
2022/04/16 04:30:26;;;;;;;47.13;31.57;;;7.20;99.90;;;;;;6310255;22;20444;-82
2022/04/16 04:32:56;;;;;;;43.10;32.10;;;7.20;99.90;;;;;;6337890;22;20080;-81
2022/04/16 04:35:22;;;;;;;44.05;30.23;;;7.20;99.90;;;;;;6310081;22;20463;-80
2022/04/16 04:37:48;;;;;;;46.30;32.53;;;7.20;99.90;;;;;;6309993;22;20030;-81
2022/04/16 04:40:14;;;;;;;45.20;31.30;;;7.20;99.90;;;;;;6310220;22;20060;-80
2022/04/16 04:42:39;;;;;;;43.93;31.07;;;7.20;99.90;;;;;;6310283;22;20400;-82
2022/04/16 04:45:10;;;;;;;46.43;31.30;;;7.20;99.90;;;;;;6310274;22;20055;-83
2022/04/16 04:47:36;;;;;;;43.28;29.90;;;7.20;99.90;;;;;;6284093;22;20467;-80
2022/04/16 04:50:02;;;;;;;43.83;29.98;;;7.20;99.90;;;;;;6310079;22;20405;-81
2022/04/16 04:52:29;;;;;;;46.33;31.02;;;7.20;99.90;;;;;;6309937;22;20011;-82
2022/04/16 04:55:09;;;;;;;46.35;30.27;;;7.20;99.90;;;;;;6337331;22;20321;-83
2022/04/16 04:57:35;;;;;;;41.38;28.65;;;7.20;99.90;;;;;;6309881;22;20019;-81
2022/04/16 05:00:01;;;;;;;42.70;28.97;;;7.20;99.90;;;;;;6309999;22;20019;-80
2022/04/16 05:02:26;;;;;;;39.80;27.10;;;7.20;99.90;;;;;;6337932;22;20253;-82
2022/04/16 05:04:52;;;;;;;39.30;26.80;;;7.30;99.90;;;;;;6337601;22;20438;-82
2022/04/16 05:07:18;;;;;;;36.93;24.80;;;7.30;99.90;;;;;;6310094;22;20073;-82
2022/04/16 05:09:43;;;;;;;36.40;25.07;;;7.30;99.90;;;;;;6309802;22;20023;-85
2022/04/16 05:12:09;;;;;;;35.57;25.40;;;7.30;99.90;;;;;;6309563;22;20023;-85
2022/04/16 05:14:35;;;;;;;35.73;25.53;;;7.30;99.90;;;;;;6312969;22;20015;-86
2022/04/16 05:17:01;;;;;;;36.50;25.70;;;7.30;99.90;;;;;;6286034;22;20087;-85
2022/04/16 05:19:26;;;;;;;38.80;26.90;;;7.30;99.90;;;;;;6311904;22;20076;-86
2022/04/16 05:21:52;;;;;;;37.13;26.73;;;7.30;99.90;;;;;;6339192;22;20010;-83
2022/04/16 05:24:18;;;;;;;40.20;26.60;;;7.30;99.90;;;;;;6286001;22;20023;-87
2022/04/16 05:26:44;;;;;;;39.37;27.47;;;7.30;99.90;;;;;;6339507;22;20383;-87
2022/04/16 05:29:09;;;;;;;37.10;26.13;;;7.30;99.90;;;;;;6339063;22;20041;-85
2022/04/16 05:31:36;;;;;;;36.40;25.97;;;7.30;99.90;;;;;;6338915;22;20348;-84
2022/04/16 05:34:21;;;;;;;37.10;25.08;;;7.30;99.90;;;;;;6311425;22;20397;-86
2022/04/16 05:36:48;;;;;;;34.65;23.42;;;7.30;99.90;;;;;;6339250;22;20023;-85
2022/04/16 05:39:15;;;;;;;35.85;24.52;;;7.30;99.90;;;;;;6311497;22;20030;-85
2022/04/16 05:41:41;;;;;;;36.63;23.27;;;7.30;99.90;;;;;;6339122;22;20105;-82
2022/04/16 05:44:07;;;;;;;36.57;23.53;;;7.30;99.90;;;;;;6339136;22;20404;-85
2022/04/16 05:46:33;;;;;;;33.67;22.77;;;7.30;99.90;;;;;;6311039;22;20023;-84
2022/04/16 05:48:58;;;;;;;32.43;21.47;;;7.30;99.90;;;;;;6311335;22;20034;-86
2022/04/16 05:51:25;;;;;;;34.33;22.47;;;7.30;99.90;;;;;;6338927;22;20019;-83
2022/04/16 05:53:52;;;;;;;34.92;22.45;;;7.30;99.90;;;;;;6311369;22;20019;-85
2022/04/16 05:56:18;;;;;;;;;;;7.30;99.90;;;;;;6311812;22;20042;-85
2022/04/16 05:58:44;;;;;;;31.05;20.52;;;7.30;99.90;;;;;;6311225;22;19915;-87
2022/04/16 06:01:12;;;;;;;33.30;21.17;;;7.30;99.90;;;;;;6311289;22;20019;-86
2022/04/16 06:03:39;;;;;;;32.58;20.27;;;7.20;99.90;;;;;;6338826;22;20065;-87
2022/04/16 06:06:09;;;;;;;31.98;20.48;;;7.30;99.90;;;;;;6311113;22;20356;-85
2022/04/16 06:08:37;;;;;;;34.15;22.67;;;7.30;99.90;;;;;;6338871;22;20018;-85
2022/04/16 06:11:04;;;;;;;31.63;21.15;;;7.40;99.90;;;;;;6338977;22;20015;-85
2022/04/16 06:13:30;;;;;;;;;;;7.40;99.90;;;;;;6339199;22;20022;-84
2022/04/16 06:16:00;;;;;;;31.80;20.38;;;7.60;99.90;;;;;;6338125;22;20274;-86
2022/04/16 06:18:26;;;;;;;29.63;19.42;;;7.70;99.90;;;;;;6338872;22;20029;-86
2022/04/16 06:20:52;;;;;;;27.73;18.73;;;7.90;99.90;;;;;;6338676;22;20332;-82
2022/04/16 06:23:22;;;;;;;29.90;19.23;;;8.00;99.90;;;;;;6338775;22;20018;-83
2022/04/16 06:25:48;;;;;;;29.73;18.67;;;8.10;99.90;;;;;;6338832;22;20037;-83
2022/04/16 06:28:14;;;;;;;28.73;19.40;;;8.20;99.90;;;;;;6311505;22;20355;-83
2022/04/16 06:30:40;;;;;;;29.00;18.98;;;8.50;99.90;;;;;;6338896;22;20098;-82
2022/04/16 06:33:05;;;;;;;29.23;18.43;;;9.00;99.90;;;;;;6338860;22;20073;-83
2022/04/16 06:35:31;;;;;;;26.93;18.23;;;9.40;99.90;;;;;;6310718;22;20023;-83
2022/04/16 06:37:57;;;;;;;25.27;17.57;;;9.80;99.90;;;;;;6338641;22;20443;-82
2022/04/16 06:40:22;;;;;;;26.73;17.37;;;10.20;99.90;;;;;;6310364;22;20026;-84
2022/04/16 06:42:48;;;;;;;26.60;17.17;;;10.70;99.90;;;;;;6310798;22;20019;-83
2022/04/16 06:45:14;;;;;;;24.20;16.00;;;11.30;99.90;;;;;;6310856;22;20054;-80
2022/04/16 06:47:40;;;;;;;23.13;14.93;;;11.90;99.90;;;;;;6311016;22;20022;-80
2022/04/16 06:50:07;;;;;;;20.73;14.15;;;12.30;99.90;;;;;;6311229;22;20027;-80
2022/04/16 06:52:34;;;;;;;19.77;14.02;;;12.50;99.90;;;;;;6336442;22;20076;-82
2022/04/16 06:54:59;;;;;;;23.15;13.75;;;12.60;99.90;;;;;;6310053;22;20320;-84
2022/04/16 06:57:26;;;;;;;20.30;13.35;;;13.00;99.90;;;;;;6308848;22;20022;-82
2022/04/16 06:59:52;;;;;;;19.48;12.68;;;13.10;99.90;;;;;;6310675;22;20408;-85
2022/04/16 07:02:17;;;;;;;20.38;12.77;;;13.00;99.90;;;;;;6310764;22;20065;-86
2022/04/16 07:04:43;;;;;;;19.53;11.97;;;12.80;99.90;;;;;;6310599;22;20018;-81
2022/04/16 07:07:09;;;;;;;18.33;11.73;;;12.60;99.90;;;;;;6311197;22;20026;-85
2022/04/16 07:09:38;;;;;;;18.38;11.93;;;12.30;99.90;;;;;;6284822;22;20019;-83
2022/04/16 07:12:09;;;;;;;18.67;12.30;;;12.10;99.90;;;;;;6310659;22;20436;-83
2022/04/16 07:14:39;;;;;;;19.35;12.18;;;12.00;99.90;;;;;;6310185;22;20503;-86
2022/04/16 07:17:06;;;;;;;18.92;12.27;;;11.90;99.90;;;;;;6338430;22;20025;-87
2022/04/16 07:19:32;;;;;;;17.80;11.40;;;12.00;99.90;;;;;;6338515;22;20011;-85
2022/04/16 07:21:58;;;;;;;;;;;11.80;99.90;;;;;;6311020;22;20014;-86
2022/04/16 07:24:25;;;;;;;16.30;10.88;;;11.80;99.90;;;;;;6338483;22;20369;-86
2022/04/16 07:29:36;;;;;;;16.67;11.02;;;12.00;99.90;;;;;;6339351;22;19915;-88
2022/04/16 07:32:02;;;;;;;16.60;9.95;;;12.00;99.90;;;;;;6285586;22;20018;-88
2022/04/16 07:34:28;;;;;;;16.95;10.75;;;12.00;99.90;;;;;;6339221;22;20351;-87
2022/04/16 07:36:53;;;;;;;18.07;10.40;;;12.00;99.90;;;;;;6338541;22;20026;-89
2022/04/16 07:39:19;;;;;;;16.77;9.80;;;11.80;99.90;;;;;;6285931;22;20333;-88
2022/04/16 07:41:45;;;;;;;15.40;9.47;;;11.40;99.90;;;;;;6311588;22;20026;-90
2022/04/16 07:48:13;;;;;;;15.75;9.73;;;10.90;99.90;;;;;;6339047;22;20090;-86
2022/04/16 07:50:44;;;;;;;13.15;8.60;;;10.50;99.90;;;;;;6284782;22;20475;-85
2022/04/16 07:53:10;;;;;;;14.07;8.63;;;10.20;99.90;;;;;;6284910;22;20010;-86
2022/04/16 07:55:36;;;;;;;13.90;8.77;;;10.10;99.90;;;;;;6338384;22;20023;-87
2022/04/16 07:58:02;;;;;;;15.13;9.10;;;10.00;99.90;;;;;;6338537;22;20102;-84
2022/04/16 08:00:27;;;;;;;13.23;8.43;;;9.90;99.90;;;;;;6336832;22;20351;-84
2022/04/16 08:02:53;;;;;;;16.00;7.97;;;9.90;99.90;;;;;;6309725;22;20019;-85
2022/04/16 08:05:19;;;;;;;15.90;7.73;;;9.90;99.90;;;;;;6310760;22;20083;-87
2022/04/16 08:07:44;;;;;;;14.10;7.17;;;9.80;99.90;;;;;;6338381;22;20022;-85
2022/04/16 08:10:10;;;;;;;13.67;8.03;;;9.80;99.90;;;;;;6338729;22;20023;-89
2022/04/16 08:12:37;;;;;;;11.83;7.10;;;9.70;99.90;;;;;;6336609;22;20387;-86
2022/04/16 08:15:12;;;;;;;13.45;7.50;;;9.70;99.90;;;;;;6338305;22;20339;-93
2022/04/16 08:17:37;;;;;;;10.52;6.50;;;9.70;99.90;;;;;;6338737;22;20297;-88
2022/04/16 08:20:07;;;;;;;9.20;5.57;;;9.70;99.90;;;;;;6338856;22;20015;-86
2022/04/16 08:22:34;;;;;;;8.73;4.43;;;9.70;99.90;;;;;;6311288;22;20328;-85
2022/04/16 08:28:06;;;;;;;8.30;4.13;;;9.80;99.90;;;;;;6274233;22;20016;-91
2022/04/16 08:30:32;;;;;;;8.32;4.28;;;9.80;99.90;;;;;;6327834;22;20152;-93
2022/04/16 08:32:58;;;;;;;6.72;3.90;;;9.80;99.90;;;;;;6313950;22;20076;-93
2022/04/16 08:35:24;;;;;;;8.65;4.40;;;9.80;99.90;;;;;;6299571;22;20047;-87
2022/04/16 08:37:51;;;;;;;8.77;3.85;;;9.90;99.90;;;;;;6294985;22;20019;-89
2022/04/16 08:40:18;;;;;;;6.78;3.28;;;10.00;99.90;;;;;;6291199;22;20086;-89
2022/04/16 08:42:46;;;;;;;;;;;10.10;99.90;;;;;;6324944;22;20022;-87
2022/04/16 08:45:12;;;;;;;6.28;3.22;;;10.20;99.90;;;;;;6289699;22;20334;-93
2022/04/16 08:47:41;;;;;;;7.10;3.63;;;10.20;99.90;;;;;;6313833;22;20014;-91
2022/04/16 08:50:09;;;;;;;6.72;3.00;;;10.30;99.90;;;;;;6287724;22;20440;-92
2022/04/16 08:52:36;;;;;;;6.10;2.88;;;10.30;99.90;;;;;;6342018;22;20014;-88
2022/04/16 08:55:06;;;;;;;8.23;3.55;;;10.40;99.90;;;;;;6343101;22;20019;-92
2022/04/16 08:57:33;;;;;;;6.55;3.20;;;10.30;99.90;;;;;;6315297;22;20459;-92
2022/04/16 08:59:58;;;;;;;7.03;2.67;;;10.40;99.90;;;;;;6313365;22;20023;-93
2022/04/16 09:02:31;;;;;;;8.63;2.67;;;10.40;99.90;;;;;;6315713;22;20098;-95
2022/04/16 09:05:10;;;;;;;6.55;2.50;;;10.40;98.90;;;;;;6288906;22;20046;-93
2022/04/16 09:07:55;;;;;;;5.47;2.67;;;10.40;99.20;;;;;;6289033;22;20015;-91
2022/04/16 09:10:24;;;;;;;4.78;2.30;;;10.50;98.40;;;;;;6287937;22;20448;-90
2022/04/16 09:12:51;;;;;;;5.40;2.05;;;10.50;97.90;;;;;;6287347;22;20455;-91
2022/04/16 09:15:18;;;;;;;5.57;2.25;;;10.60;97.40;;;;;;6288283;22;20023;-91
2022/04/16 09:17:55;;;;;;;5.32;2.53;;;10.70;97.80;;;;;;6287550;22;20022;-93
2022/04/16 09:20:20;;;;;;;5.55;1.92;;;10.80;97.70;;;;;;6287663;22;20019;-91
2022/04/16 09:22:49;;;;;;;4.27;1.80;;;10.90;95.30;;;;;;6313257;22;20017;-91
2022/04/16 09:25:19;;;;;;;4.53;1.50;;;10.90;95.20;;;;;;6287511;22;20058;-93
2022/04/16 09:27:49;;;;;;;3.33;1.42;;;11.00;95.00;;;;;;6287478;22;20110;-90
2022/04/16 09:30:25;;;;;;;2.80;1.05;;;11.10;93.60;;;;;;6311465;22;20022;-92
2022/04/16 09:32:54;;;;;;;1.38;0.60;;;11.10;92.70;;;;;;6287326;22;20019;-90
2022/04/16 09:35:27;;;;;;;3.15;0.95;;;11.20;90.20;;;;;;6313227;22;20472;-91
2022/04/16 09:37:58;;;;;;;2.17;0.70;;;11.20;80.70;;;;;;6287016;22;20018;-89
2022/04/16 09:40:31;;;;;;;3.40;0.70;;;11.30;83.40;;;;;;6313363;22;20097;-94
2022/04/16 09:43:01;;;;;;;2.42;0.90;;;11.40;80.70;;;;;;6287765;22;20453;-93
2022/04/16 09:45:30;;;;;;;3.78;1.25;;;11.40;81.40;;;;;;6287507;22;20011;-91
2022/04/16 09:47:57;;;;;;;4.05;1.30;;;11.40;81.30;;;;;;6287565;22;20130;-95
2022/04/16 09:50:26;;;;;;;4.00;1.10;;;11.40;82.30;;;;;;6288236;22;20148;-91
2022/04/16 09:52:57;;;;;;;2.78;1.00;;;11.50;83.20;;;;;;6287535;22;20098;-91
2022/04/16 09:55:26;;;;;;;2.85;1.00;;;11.40;80.30;;;;;;6312826;22;20463;-90
2022/04/16 09:58:04;;;;;;;3.20;1.13;;;11.50;81.20;;;;;;6287068;22;20111;-89
2022/04/16 10:00:33;;;;;;;2.95;1.00;;;11.50;78.00;;;;;;6286756;22;20023;-93
2022/04/16 10:03:00;;;;;;;3.53;0.90;;;11.50;81.00;;;;;;6313080;22;20539;-92
2022/04/16 10:05:26;;;;;;;4.30;1.10;;;11.60;81.20;;;;;;6313046;22;20057;-91
2022/04/16 10:07:53;;;;;;;2.78;1.13;;;11.70;80.00;;;;;;6287413;22;20527;-90
2022/04/16 10:10:25;;;;;;;3.50;1.40;;;11.70;79.40;;;;;;6287391;22;20479;-91
2022/04/16 10:13:03;;;;;;;3.65;1.60;;;11.80;81.60;;;;;;6286367;22;20015;-91
2022/04/16 10:15:53;;;;;;;2.90;1.25;;;11.80;79.70;;;;;;6286268;22;20022;-90
2022/04/16 10:18:19;;;;;;;2.42;0.98;;;11.80;80.00;;;;;;6338399;22;20033;-94
2022/04/16 10:20:56;;;;;;;1.83;0.70;;;11.90;77.80;;;;;;6312559;22;20026;-90
2022/04/16 10:23:29;;;;;;;3.45;1.20;;;11.90;74.90;;;;;;6286957;22;20074;-89
2022/04/16 10:26:05;;;;;;;4.25;1.23;;;11.90;71.60;;;;;;6286650;22;20513;-90
2022/04/16 10:28:52;;;;;;;2.08;0.90;;;11.80;71.70;;;;;;6286712;22;20042;-90
2022/04/16 10:31:30;;;;;;;4.90;1.33;;;12.00;74.30;;;;;;6286629;22;20528;-92
2022/04/16 10:34:05;;;;;;;2.47;1.10;;;12.10;73.90;;;;;;6339899;22;20026;-90
2022/04/16 10:36:43;;;;;;;5.10;1.20;;;12.10;75.40;;;;;;6286554;22;20044;-90
2022/04/16 10:39:16;;;;;;;3.00;0.95;;;12.30;75.60;;;;;;6286436;22;20019;-89
2022/04/16 10:41:56;;;;;;;1.42;0.77;;;12.40;75.10;;;;;;6338032;22;20022;-90
2022/04/16 10:44:22;;;;;;;1.98;0.73;;;12.50;71.30;;;;;;6286635;22;20069;-92
2022/04/16 10:46:49;;;;;;;2.92;0.75;;;12.50;69.40;;;;;;6339946;22;20014;-91
2022/04/16 10:49:20;;;;;;;3.75;1.10;;;12.50;67.10;;;;;;6286678;22;20022;-91
2022/04/16 10:51:46;;;;;;;2.33;0.88;;;12.50;69.80;;;;;;6286787;22;20026;-91
2022/04/16 10:54:14;;;;;;;2.20;0.70;;;12.70;71.50;;;;;;6286687;22;20011;-91
2022/04/16 10:56:51;;;;;;;2.88;1.00;;;12.90;69.00;;;;;;6286492;22;20032;-89
2022/04/16 10:59:16;;;;;;;4.65;1.00;;;12.90;69.20;;;;;;6286439;22;20019;-92
2022/04/16 11:01:52;;;;;;;4.83;1.20;;;13.00;70.90;;;;;;6312100;22;20019;-91
2022/04/16 11:04:19;;;;;;;2.97;1.10;;;13.10;71.10;;;;;;6286419;22;20023;-91
2022/04/16 11:06:48;;;;;;;2.60;0.90;;;13.10;70.80;;;;;;6286283;22;20018;-89
2022/04/16 11:09:18;;;;;;;6.07;1.20;;;13.20;70.80;;;;;;6285673;22;20025;-91
2022/04/16 11:11:52;;;;;;;3.13;1.15;;;13.20;69.40;;;;;;6285894;22;20054;-91
2022/04/16 11:14:18;;;;;;;2.53;1.17;;;13.20;69.70;;;;;;6286576;22;20463;-91
2022/04/16 11:16:46;;;;;;;2.83;1.10;;;13.30;69.20;;;;;;6286697;22;20091;-91
2022/04/16 11:19:16;;;;;;;3.35;1.15;;;13.30;70.30;;;;;;6286319;22;20340;-89
2022/04/16 11:21:43;;;;;;;2.50;1.00;;;13.40;69.60;;;;;;6286257;22;20030;-89
2022/04/16 11:24:09;;;;;;;3.60;1.00;;;13.50;70.00;;;;;;6286029;22;20014;-90
2022/04/16 11:34:56;;;;;;;3.70;1.10;;;13.40;67.50;;;;;;6312183;22;20440;-93
2022/04/16 11:37:22;;;;;;;2.75;1.10;;;13.20;67.60;;;;;;6286422;22;20021;-91
2022/04/16 11:40:01;;;;;;;3.10;1.00;;;13.20;69.10;;;;;;6286423;22;20023;-91
2022/04/16 11:42:28;;;;;;;3.70;1.42;;;13.30;70.50;;;;;;6286068;22;20021;-90
2022/04/16 11:44:55;;;;;;;4.40;1.20;;;13.50;69.50;;;;;;6286049;22;20059;-90
2022/04/16 11:47:23;;;;;;;2.20;1.02;;;13.70;68.50;;;;;;6286234;22;20019;-91
2022/04/16 11:49:53;;;;;;;3.47;0.73;;;13.70;66.60;;;;;;6312191;22;20033;-90
2022/04/16 11:52:24;;;;;;;3.70;0.90;;;13.60;64.30;;;;;;6286040;22;20448;-92
2022/04/16 11:55:21;;;;;;;3.00;0.90;;;13.70;64.50;;;;;;6286107;22;20023;-91
2022/04/16 11:57:52;;;;;;;2.85;0.82;;;13.90;66.50;;;;;;6311890;22;20026;-90
2022/04/16 12:00:21;;;;;;;2.38;0.80;;;14.00;63.70;;;;;;6286846;22;20025;-92
2022/04/16 12:02:53;;;;;;;2.88;0.70;;;14.00;62.20;;;;;;6286368;22;20404;-92
2022/04/16 12:05:26;;;;;;;2.30;0.73;;;14.00;62.90;;;;;;6286202;22;20347;-94
2022/04/16 12:07:52;;;;;;;4.03;0.90;;;14.10;63.50;;;;;;6286488;22;20023;-94
2022/04/16 12:10:18;;;;;;;1.95;0.88;;;14.20;62.70;;;;;;6286324;22;20019;-94
2022/04/16 12:12:47;;;;;;;2.42;0.70;;;14.20;62.70;;;;;;6286316;22;20034;-92
2022/04/16 12:15:23;;;;;;;4.22;0.90;;;14.30;62.20;;;;;;6286077;22;20019;-90
2022/04/16 12:17:50;;;;;;;3.58;0.80;;;14.30;61.60;;;;;;6286250;22;20028;-94
2022/04/16 12:20:16;;;;;;;2.85;0.80;;;14.40;61.60;;;;;;6286226;22;20019;-91
2022/04/16 12:23:02;;;;;;;2.25;0.80;;;14.50;59.30;;;;;;6286287;22;20396;-91
2022/04/16 12:25:32;;;;;;;1.35;0.60;;;14.40;58.00;;;;;;6288869;22;20094;-92
2022/04/16 12:28:01;;;;;;;;;;;14.20;59.00;;;;;;6283330;22;20019;-92
2022/04/16 12:30:31;;;;;;;2.65;0.95;;;14.20;60.70;;;;;;6282656;22;20314;-90
2022/04/16 12:33:01;;;;;;;3.08;0.90;;;14.30;60.80;;;;;;6282923;22;20095;-91
2022/04/16 12:35:35;;;;;;;2.55;0.60;;;14.40;58.50;;;;;;6282687;22;20026;-92
2022/04/16 12:38:02;;;;;;;3.35;1.00;;;14.40;60.50;;;;;;6282927;22;20103;-94
2022/04/16 12:40:32;;;;;;;4.90;0.85;;;14.60;60.70;;;;;;6282731;22;20098;-92
2022/04/16 12:48:09;;;;;;;3.20;0.85;;;14.60;61.30;;;;;;6309806;22;21058;-89
2022/04/16 12:50:35;;;;;;;3.22;1.10;;;14.80;61.70;;;;;;6308615;22;20019;-90
2022/04/16 12:53:04;;;;;;;3.75;1.00;;;14.90;58.40;;;;;;6282291;22;20022;-91
2022/04/16 12:55:30;;;;;;;3.03;1.10;;;14.90;56.80;;;;;;6282564;22;20027;-92
2022/04/16 12:57:56;;;;;;;3.08;1.00;;;14.80;57.20;;;;;;6282672;22;20015;-91
2022/04/16 13:13:19;;;;;;;4.40;1.30;;;14.80;58.40;;;;;;6308568;22;20022;-80
2022/04/16 13:15:44;;;;;;;1.85;0.70;;;14.90;60.00;;;;;;6307300;22;20023;-79
2022/04/16 13:18:10;;;;;;;2.73;0.80;;;15.10;59.70;;;;;;6335921;22;20378;-83
2022/04/16 13:20:37;;;;;;;3.43;0.90;;;15.10;58.40;;;;;;6309110;22;20014;-84
2022/04/16 13:23:03;;;;;;;1.45;0.70;;;15.10;58.00;;;;;;6309566;22;20464;-83
2022/04/16 13:25:32;;;;;;;3.58;0.70;;;15.00;55.90;;;;;;6284147;22;20014;-85
2022/04/16 13:27:58;;;;;;;2.80;0.80;;;15.10;56.40;;;;;;6309950;22;20026;-85
2022/04/16 13:30:23;;;;;;;2.10;0.60;;;15.10;57.20;;;;;;6309878;22;20014;-84
2022/04/16 13:32:50;;;;;;;2.15;0.80;;;15.20;56.60;;;;;;6309418;22;20019;-85
2022/04/16 13:35:16;;;;;;;1.17;0.55;;;15.30;56.30;;;;;;6309186;22;20014;-86
2022/04/16 13:37:42;;;;;;;2.65;0.70;;;15.30;55.90;;;;;;6308737;22;20076;-86
2022/04/16 13:42:52;;;;;;;1.95;0.60;;;15.30;56.30;;;;;;6338102;22;20028;-85
2022/04/16 13:45:18;;;;;;;1.27;0.70;;;15.40;55.80;;;;;;6310417;22;20046;-82
2022/04/16 13:47:43;;;;;;;3.05;0.70;;;15.50;55.40;;;;;;6310232;22;20046;-85
2022/04/16 13:50:09;;;;;;;1.43;0.70;;;15.50;54.30;;;;;;6309192;22;20458;-85